sensor_id;sensor_type;location;lat;lon;timestamp;temperature;humidity
51839;DHT22;37886;53.174;6.368;2022-09-30T00:01:33;7.60;99.90
51839;DHT22;37886;53.174;6.368;2022-09-30T00:03:59;7.60;99.90
51839;DHT22;37886;53.174;6.368;2022-09-30T00:06:27;7.60;99.90
51839;DHT22;37886;53.174;6.368;2022-09-30T00:08:53;7.60;99.90
51839;DHT22;37886;53.174;6.368;2022-09-30T00:11:22;7.60;99.90
51839;DHT22;37886;53.174;6.368;2022-09-30T00:13:51;7.50;99.90
51839;DHT22;37886;53.174;6.368;2022-09-30T00:16:19;7.40;99.90
51839;DHT22;37886;53.174;6.368;2022-09-30T00:18:48;7.30;99.90
51839;DHT22;37886;53.174;6.368;2022-09-30T00:21:15;7.30;99.90
51839;DHT22;37886;53.174;6.368;2022-09-30T00:23:42;7.30;99.90
51839;DHT22;37886;53.174;6.368;2022-09-30T00:26:12;7.20;99.90
51839;DHT22;37886;53.174;6.368;2022-09-30T00:28:39;7.20;99.90
51839;DHT22;37886;53.174;6.368;2022-09-30T00:31:07;7.10;99.90
51839;DHT22;37886;53.174;6.368;2022-09-30T00:33:34;7.10;99.90
51839;DHT22;37886;53.174;6.368;2022-09-30T00:36:01;7.00;99.90
51839;DHT22;37886;53.174;6.368;2022-09-30T00:38:26;6.90;99.90
51839;DHT22;37886;53.174;6.368;2022-09-30T00:40:53;6.90;99.90
51839;DHT22;37886;53.174;6.368;2022-09-30T00:43:57;6.90;99.90
51839;DHT22;37886;53.174;6.368;2022-09-30T00:46:40;6.80;99.90
51839;DHT22;37886;53.174;6.368;2022-09-30T00:49:18;6.90;99.90
51839;DHT22;37886;53.174;6.368;2022-09-30T00:51:49;6.80;99.90
51839;DHT22;37886;53.174;6.368;2022-09-30T00:54:20;6.80;99.90
51839;DHT22;37886;53.174;6.368;2022-09-30T00:56:48;6.90;99.90
51839;DHT22;37886;53.174;6.368;2022-09-30T00:59:18;6.80;99.90
51839;DHT22;37886;53.174;6.368;2022-09-30T01:01:47;6.70;99.90
51839;DHT22;37886;53.174;6.368;2022-09-30T01:04:23;6.70;99.90
51839;DHT22;37886;53.174;6.368;2022-09-30T01:06:50;6.70;99.90
51839;DHT22;37886;53.174;6.368;2022-09-30T01:09:17;6.70;99.90
51839;DHT22;37886;53.174;6.368;2022-09-30T01:11:44;6.60;99.90
51839;DHT22;37886;53.174;6.368;2022-09-30T01:14:19;6.50;99.90
51839;DHT22;37886;53.174;6.368;2022-09-30T01:24:55;6.60;99.90
51839;DHT22;37886;53.174;6.368;2022-09-30T01:27:33;6.50;99.90
51839;DHT22;37886;53.174;6.368;2022-09-30T01:30:20;6.60;99.90
51839;DHT22;37886;53.174;6.368;2022-09-30T01:32:57;6.60;99.90
51839;DHT22;37886;53.174;6.368;2022-09-30T01:41:37;6.40;99.90
51839;DHT22;37886;53.174;6.368;2022-09-30T01:44:30;6.40;99.90
51839;DHT22;37886;53.174;6.368;2022-09-30T01:47:05;6.30;99.90
51839;DHT22;37886;53.174;6.368;2022-09-30T01:49:55;6.30;99.90
51839;DHT22;37886;53.174;6.368;2022-09-30T01:52:55;6.20;99.90
51839;DHT22;37886;53.174;6.368;2022-09-30T01:55:30;6.10;99.90
51839;DHT22;37886;53.174;6.368;2022-09-30T02:00:27;6.20;99.90
51839;DHT22;37886;53.174;6.368;2022-09-30T02:11:01;6.20;99.90
51839;DHT22;37886;53.174;6.368;2022-09-30T02:16:03;6.10;99.90
51839;DHT22;37886;53.174;6.368;2022-09-30T02:18:57;6.00;99.90
51839;DHT22;37886;53.174;6.368;2022-09-30T02:21:29;6.00;99.90
51839;DHT22;37886;53.174;6.368;2022-09-30T02:24:01;6.00;99.90
51839;DHT22;37886;53.174;6.368;2022-09-30T02:26:34;5.90;99.90
51839;DHT22;37886;53.174;6.368;2022-09-30T02:29:11;5.90;99.90
51839;DHT22;37886;53.174;6.368;2022-09-30T02:31:40;5.90;99.90
51839;DHT22;37886;53.174;6.368;2022-09-30T02:34:08;6.10;99.90
51839;DHT22;37886;53.174;6.368;2022-09-30T02:39:46;6.20;99.90
51839;DHT22;37886;53.174;6.368;2022-09-30T02:42:21;6.20;99.90
51839;DHT22;37886;53.174;6.368;2022-09-30T02:44:50;6.30;99.90
51839;DHT22;37886;53.174;6.368;2022-09-30T02:50:19;6.20;99.90
51839;DHT22;37886;53.174;6.368;2022-09-30T02:55:55;6.20;99.90
51839;DHT22;37886;53.174;6.368;2022-09-30T02:58:24;6.20;99.90
51839;DHT22;37886;53.174;6.368;2022-09-30T03:00:51;6.20;99.90
51839;DHT22;37886;53.174;6.368;2022-09-30T03:03:45;6.30;99.90
51839;DHT22;37886;53.174;6.368;2022-09-30T03:06:12;6.30;99.90
51839;DHT22;37886;53.174;6.368;2022-09-30T03:08:38;6.20;99.90
51839;DHT22;37886;53.174;6.368;2022-09-30T03:11:05;6.20;99.90
51839;DHT22;37886;53.174;6.368;2022-09-30T03:24:50;6.20;99.90
51839;DHT22;37886;53.174;6.368;2022-09-30T03:33:24;6.10;99.90
51839;DHT22;37886;53.174;6.368;2022-09-30T03:38:30;6.00;99.90
51839;DHT22;37886;53.174;6.368;2022-09-30T03:43:50;6.00;99.90
51839;DHT22;37886;53.174;6.368;2022-09-30T03:49:08;5.90;99.90
51839;DHT22;37886;53.174;6.368;2022-09-30T03:51:37;6.00;99.90
51839;DHT22;37886;53.174;6.368;2022-09-30T03:54:09;5.90;99.90
51839;DHT22;37886;53.174;6.368;2022-09-30T03:56:36;5.80;99.90
51839;DHT22;37886;53.174;6.368;2022-09-30T03:59:12;5.80;99.90
51839;DHT22;37886;53.174;6.368;2022-09-30T04:01:40;5.70;99.90
51839;DHT22;37886;53.174;6.368;2022-09-30T04:04:06;5.70;99.90
51839;DHT22;37886;53.174;6.368;2022-09-30T04:06:32;5.60;99.90
51839;DHT22;37886;53.174;6.368;2022-09-30T04:08:58;5.60;99.90
51839;DHT22;37886;53.174;6.368;2022-09-30T04:11:24;5.60;99.90
51839;DHT22;37886;53.174;6.368;2022-09-30T04:13:49;5.50;99.90
51839;DHT22;37886;53.174;6.368;2022-09-30T04:16:15;5.50;99.90
51839;DHT22;37886;53.174;6.368;2022-09-30T04:18:41;5.60;99.90
51839;DHT22;37886;53.174;6.368;2022-09-30T04:21:08;5.60;99.90
51839;DHT22;37886;53.174;6.368;2022-09-30T04:23:38;5.50;99.90
51839;DHT22;37886;53.174;6.368;2022-09-30T04:26:06;5.40;99.90
51839;DHT22;37886;53.174;6.368;2022-09-30T04:28:33;5.40;99.90
51839;DHT22;37886;53.174;6.368;2022-09-30T04:31:03;5.50;99.90
51839;DHT22;37886;53.174;6.368;2022-09-30T04:33:29;5.60;99.90
51839;DHT22;37886;53.174;6.368;2022-09-30T04:35:56;5.50;99.90
51839;DHT22;37886;53.174;6.368;2022-09-30T04:38:23;5.50;99.90
51839;DHT22;37886;53.174;6.368;2022-09-30T04:40:50;5.50;99.90
51839;DHT22;37886;53.174;6.368;2022-09-30T04:43:17;5.60;99.90
51839;DHT22;37886;53.174;6.368;2022-09-30T04:45:47;5.60;99.90
51839;DHT22;37886;53.174;6.368;2022-09-30T04:48:14;5.70;99.90
51839;DHT22;37886;53.174;6.368;2022-09-30T04:50:40;5.70;99.90
51839;DHT22;37886;53.174;6.368;2022-09-30T04:53:07;5.60;99.90
51839;DHT22;37886;53.174;6.368;2022-09-30T04:55:32;5.60;99.90
51839;DHT22;37886;53.174;6.368;2022-09-30T04:57:58;5.50;99.90
51839;DHT22;37886;53.174;6.368;2022-09-30T05:00:24;5.50;99.90
51839;DHT22;37886;53.174;6.368;2022-09-30T05:02:50;5.50;99.90
51839;DHT22;37886;53.174;6.368;2022-09-30T05:05:17;5.40;99.90
51839;DHT22;37886;53.174;6.368;2022-09-30T05:07:42;5.40;99.90
51839;DHT22;37886;53.174;6.368;2022-09-30T05:10:09;5.40;99.90
51839;DHT22;37886;53.174;6.368;2022-09-30T05:12:36;5.40;99.90
51839;DHT22;37886;53.174;6.368;2022-09-30T05:15:06;5.40;99.90
51839;DHT22;37886;53.174;6.368;2022-09-30T05:17:32;5.40;99.90
51839;DHT22;37886;53.174;6.368;2022-09-30T05:19:58;5.40;99.90
51839;DHT22;37886;53.174;6.368;2022-09-30T05:22:25;5.40;99.90
51839;DHT22;37886;53.174;6.368;2022-09-30T05:24:51;5.40;99.90
51839;DHT22;37886;53.174;6.368;2022-09-30T05:27:18;5.40;99.90
51839;DHT22;37886;53.174;6.368;2022-09-30T05:29:44;5.50;99.90
51839;DHT22;37886;53.174;6.368;2022-09-30T05:32:10;5.50;99.90
51839;DHT22;37886;53.174;6.368;2022-09-30T05:34:36;5.50;99.90
51839;DHT22;37886;53.174;6.368;2022-09-30T05:37:04;5.40;99.90
51839;DHT22;37886;53.174;6.368;2022-09-30T05:39:30;5.50;99.90
51839;DHT22;37886;53.174;6.368;2022-09-30T05:41:57;5.50;99.90
51839;DHT22;37886;53.174;6.368;2022-09-30T05:44:23;5.70;99.90
51839;DHT22;37886;53.174;6.368;2022-09-30T05:46:49;5.70;99.90
51839;DHT22;37886;53.174;6.368;2022-09-30T05:49:14;5.70;99.90
51839;DHT22;37886;53.174;6.368;2022-09-30T05:51:40;5.60;99.90
51839;DHT22;37886;53.174;6.368;2022-09-30T05:54:06;5.60;99.90
51839;DHT22;37886;53.174;6.368;2022-09-30T05:56:32;5.50;99.90
51839;DHT22;37886;53.174;6.368;2022-09-30T05:59:03;5.70;99.90
51839;DHT22;37886;53.174;6.368;2022-09-30T06:01:29;5.80;99.90
51839;DHT22;37886;53.174;6.368;2022-09-30T06:03:55;5.80;99.90
51839;DHT22;37886;53.174;6.368;2022-09-30T06:06:21;5.70;99.90
51839;DHT22;37886;53.174;6.368;2022-09-30T06:08:46;5.70;99.90
51839;DHT22;37886;53.174;6.368;2022-09-30T06:11:21;5.70;99.90
51839;DHT22;37886;53.174;6.368;2022-09-30T06:13:49;5.80;99.90
51839;DHT22;37886;53.174;6.368;2022-09-30T06:16:17;5.90;99.90
51839;DHT22;37886;53.174;6.368;2022-09-30T06:18:43;5.90;99.90
51839;DHT22;37886;53.174;6.368;2022-09-30T06:21:12;5.90;99.90
51839;DHT22;37886;53.174;6.368;2022-09-30T06:23:38;5.90;99.90
51839;DHT22;37886;53.174;6.368;2022-09-30T06:26:06;6.00;99.90
51839;DHT22;37886;53.174;6.368;2022-09-30T06:28:33;6.10;99.90
51839;DHT22;37886;53.174;6.368;2022-09-30T06:31:01;6.10;99.90
51839;DHT22;37886;53.174;6.368;2022-09-30T06:33:27;6.30;99.90
51839;DHT22;37886;53.174;6.368;2022-09-30T06:35:54;6.30;99.90
51839;DHT22;37886;53.174;6.368;2022-09-30T06:38:20;6.30;99.90
51839;DHT22;37886;53.174;6.368;2022-09-30T06:40:47;6.40;99.90
51839;DHT22;37886;53.174;6.368;2022-09-30T06:43:17;6.40;99.90
51839;DHT22;37886;53.174;6.368;2022-09-30T06:45:48;6.50;99.90
51839;DHT22;37886;53.174;6.368;2022-09-30T06:48:16;6.50;99.90
51839;DHT22;37886;53.174;6.368;2022-09-30T06:50:43;6.50;99.90
51839;DHT22;37886;53.174;6.368;2022-09-30T06:53:11;6.60;99.90
51839;DHT22;37886;53.174;6.368;2022-09-30T06:55:38;6.60;99.90
51839;DHT22;37886;53.174;6.368;2022-09-30T06:58:12;6.60;99.90
51839;DHT22;37886;53.174;6.368;2022-09-30T07:00:38;6.70;99.90
51839;DHT22;37886;53.174;6.368;2022-09-30T07:03:05;6.80;99.90
51839;DHT22;37886;53.174;6.368;2022-09-30T07:05:35;6.80;99.90
51839;DHT22;37886;53.174;6.368;2022-09-30T07:08:01;6.90;99.90
51839;DHT22;37886;53.174;6.368;2022-09-30T07:10:27;7.00;99.90
51839;DHT22;37886;53.174;6.368;2022-09-30T07:12:53;7.10;99.90
51839;DHT22;37886;53.174;6.368;2022-09-30T07:15:19;7.20;99.90
51839;DHT22;37886;53.174;6.368;2022-09-30T07:17:52;7.30;99.90
51839;DHT22;37886;53.174;6.368;2022-09-30T07:20:18;7.40;99.90
51839;DHT22;37886;53.174;6.368;2022-09-30T07:22:44;7.60;99.90
51839;DHT22;37886;53.174;6.368;2022-09-30T07:25:10;7.70;99.90
51839;DHT22;37886;53.174;6.368;2022-09-30T07:27:36;7.70;99.90
51839;DHT22;37886;53.174;6.368;2022-09-30T07:30:03;7.80;99.90
51839;DHT22;37886;53.174;6.368;2022-09-30T07:32:30;7.90;99.90
51839;DHT22;37886;53.174;6.368;2022-09-30T07:34:55;7.90;99.90
51839;DHT22;37886;53.174;6.368;2022-09-30T07:37:24;7.90;99.90
51839;DHT22;37886;53.174;6.368;2022-09-30T07:39:50;7.90;99.90
51839;DHT22;37886;53.174;6.368;2022-09-30T07:42:17;8.10;99.90
51839;DHT22;37886;53.174;6.368;2022-09-30T07:44:46;8.20;99.90
51839;DHT22;37886;53.174;6.368;2022-09-30T07:47:12;8.30;99.90
51839;DHT22;37886;53.174;6.368;2022-09-30T07:49:40;8.40;99.90
51839;DHT22;37886;53.174;6.368;2022-09-30T07:52:06;8.50;99.90
51839;DHT22;37886;53.174;6.368;2022-09-30T07:54:33;8.50;99.90
51839;DHT22;37886;53.174;6.368;2022-09-30T07:57:01;8.60;99.90
51839;DHT22;37886;53.174;6.368;2022-09-30T07:59:28;8.60;99.90
51839;DHT22;37886;53.174;6.368;2022-09-30T08:01:55;8.80;99.90
51839;DHT22;37886;53.174;6.368;2022-09-30T08:04:22;8.90;99.90
51839;DHT22;37886;53.174;6.368;2022-09-30T08:06:52;9.00;99.90
51839;DHT22;37886;53.174;6.368;2022-09-30T08:09:21;9.00;99.90
51839;DHT22;37886;53.174;6.368;2022-09-30T08:11:46;9.10;99.90
51839;DHT22;37886;53.174;6.368;2022-09-30T08:14:18;9.20;99.90
51839;DHT22;37886;53.174;6.368;2022-09-30T08:16:45;9.40;99.90
51839;DHT22;37886;53.174;6.368;2022-09-30T08:19:16;9.50;99.90
51839;DHT22;37886;53.174;6.368;2022-09-30T08:21:43;9.60;99.90
51839;DHT22;37886;53.174;6.368;2022-09-30T08:24:10;9.70;99.90
51839;DHT22;37886;53.174;6.368;2022-09-30T08:26:37;9.90;99.90
51839;DHT22;37886;53.174;6.368;2022-09-30T08:29:03;10.00;99.90
51839;DHT22;37886;53.174;6.368;2022-09-30T08:31:28;10.10;99.90
51839;DHT22;37886;53.174;6.368;2022-09-30T08:33:55;10.20;99.90
51839;DHT22;37886;53.174;6.368;2022-09-30T08:36:23;10.40;99.90
51839;DHT22;37886;53.174;6.368;2022-09-30T08:39:08;10.60;99.90
51839;DHT22;37886;53.174;6.368;2022-09-30T08:49:59;10.90;99.90
51839;DHT22;37886;53.174;6.368;2022-09-30T08:52:31;11.10;99.90
51839;DHT22;37886;53.174;6.368;2022-09-30T08:54:59;10.80;99.90
51839;DHT22;37886;53.174;6.368;2022-09-30T08:57:29;10.90;99.90
51839;DHT22;37886;53.174;6.368;2022-09-30T09:00:03;11.20;99.90
51839;DHT22;37886;53.174;6.368;2022-09-30T09:05:23;11.40;99.90
51839;DHT22;37886;53.174;6.368;2022-09-30T09:07:59;11.60;99.90
51839;DHT22;37886;53.174;6.368;2022-09-30T09:11:05;11.50;99.90
51839;DHT22;37886;53.174;6.368;2022-09-30T09:16:18;11.60;99.90
51839;DHT22;37886;53.174;6.368;2022-09-30T09:19:07;11.50;99.90
51839;DHT22;37886;53.174;6.368;2022-09-30T09:22:02;11.50;99.90
51839;DHT22;37886;53.174;6.368;2022-09-30T09:24:40;11.50;99.90
51839;DHT22;37886;53.174;6.368;2022-09-30T09:27:55;11.60;99.90
51839;DHT22;37886;53.174;6.368;2022-09-30T09:30:23;11.80;99.90
51839;DHT22;37886;53.174;6.368;2022-09-30T09:32:55;12.00;99.90
51839;DHT22;37886;53.174;6.368;2022-09-30T09:35:34;11.90;99.90
51839;DHT22;37886;53.174;6.368;2022-09-30T09:43:50;12.10;99.90
51839;DHT22;37886;53.174;6.368;2022-09-30T09:46:22;12.10;99.90
51839;DHT22;37886;53.174;6.368;2022-09-30T09:52:00;12.40;99.90
51839;DHT22;37886;53.174;6.368;2022-09-30T09:54:31;12.50;99.90
51839;DHT22;37886;53.174;6.368;2022-09-30T09:57:14;12.60;99.90
51839;DHT22;37886;53.174;6.368;2022-09-30T10:02:29;12.80;99.90
51839;DHT22;37886;53.174;6.368;2022-09-30T10:04:56;12.80;99.90
51839;DHT22;37886;53.174;6.368;2022-09-30T10:07:29;12.90;99.90
51839;DHT22;37886;53.174;6.368;2022-09-30T10:12:40;13.10;99.90
51839;DHT22;37886;53.174;6.368;2022-09-30T10:15:21;13.20;99.90
51839;DHT22;37886;53.174;6.368;2022-09-30T10:17:54;13.30;99.90
51839;DHT22;37886;53.174;6.368;2022-09-30T10:20:32;13.50;99.90
51839;DHT22;37886;53.174;6.368;2022-09-30T10:23:19;13.60;99.90
51839;DHT22;37886;53.174;6.368;2022-09-30T10:25:59;13.70;99.90
51839;DHT22;37886;53.174;6.368;2022-09-30T10:28:33;13.80;99.90
51839;DHT22;37886;53.174;6.368;2022-09-30T10:31:04;13.80;99.90
51839;DHT22;37886;53.174;6.368;2022-09-30T10:36:39;14.00;99.90
51839;DHT22;37886;53.174;6.368;2022-09-30T10:39:23;14.20;99.90
51839;DHT22;37886;53.174;6.368;2022-09-30T10:41:50;14.40;99.90
51839;DHT22;37886;53.174;6.368;2022-09-30T10:44:24;14.40;99.90
51839;DHT22;37886;53.174;6.368;2022-09-30T10:46:51;14.50;99.90
51839;DHT22;37886;53.174;6.368;2022-09-30T10:49:27;14.60;99.90
51839;DHT22;37886;53.174;6.368;2022-09-30T10:51:56;14.80;99.90
51839;DHT22;37886;53.174;6.368;2022-09-30T10:54:50;15.00;99.90
51839;DHT22;37886;53.174;6.368;2022-09-30T10:57:27;15.10;99.90
51839;DHT22;37886;53.174;6.368;2022-09-30T11:05:21;15.40;99.90
51839;DHT22;37886;53.174;6.368;2022-09-30T11:13:12;15.40;99.90
51839;DHT22;37886;53.174;6.368;2022-09-30T11:16:02;15.50;99.90
51839;DHT22;37886;53.174;6.368;2022-09-30T11:18:36;15.40;99.90
51839;DHT22;37886;53.174;6.368;2022-09-30T11:21:18;15.70;99.90
51839;DHT22;37886;53.174;6.368;2022-09-30T11:24:15;15.90;99.90
51839;DHT22;37886;53.174;6.368;2022-09-30T11:32:22;16.30;99.90
51839;DHT22;37886;53.174;6.368;2022-09-30T11:43:49;16.00;99.90
51839;DHT22;37886;53.174;6.368;2022-09-30T11:52:17;16.00;99.90
51839;DHT22;37886;53.174;6.368;2022-09-30T11:54:49;16.50;99.90
51839;DHT22;37886;53.174;6.368;2022-09-30T11:59:59;17.80;99.90
51839;DHT22;37886;53.174;6.368;2022-09-30T12:02:34;18.10;99.90
51839;DHT22;37886;53.174;6.368;2022-09-30T12:05:23;18.80;99.90
51839;DHT22;37886;53.174;6.368;2022-09-30T12:08:05;18.40;99.90
51839;DHT22;37886;53.174;6.368;2022-09-30T12:10:53;18.30;99.90
51839;DHT22;37886;53.174;6.368;2022-09-30T12:13:23;17.20;99.90
51839;DHT22;37886;53.174;6.368;2022-09-30T12:15:52;16.40;99.90
51839;DHT22;37886;53.174;6.368;2022-09-30T12:18:27;17.10;99.90
51839;DHT22;37886;53.174;6.368;2022-09-30T12:21:02;18.00;99.90
51839;DHT22;37886;53.174;6.368;2022-09-30T12:23:36;18.10;99.90
51839;DHT22;37886;53.174;6.368;2022-09-30T12:26:04;18.70;99.90
51839;DHT22;37886;53.174;6.368;2022-09-30T12:31:48;18.40;99.90
51839;DHT22;37886;53.174;6.368;2022-09-30T12:40:17;16.70;99.90
51839;DHT22;37886;53.174;6.368;2022-09-30T12:49:00;17.80;99.90
51839;DHT22;37886;53.174;6.368;2022-09-30T12:51:31;18.00;99.90
51839;DHT22;37886;53.174;6.368;2022-09-30T12:54:11;18.50;99.90
51839;DHT22;37886;53.174;6.368;2022-09-30T12:56:41;17.50;99.90
51839;DHT22;37886;53.174;6.368;2022-09-30T12:59:08;17.40;99.90
51839;DHT22;37886;53.174;6.368;2022-09-30T13:01:35;17.80;99.90
51839;DHT22;37886;53.174;6.368;2022-09-30T13:11:42;16.60;99.90
51839;DHT22;37886;53.174;6.368;2022-09-30T13:14:31;17.40;99.90
51839;DHT22;37886;53.174;6.368;2022-09-30T13:19:39;17.40;99.90
51839;DHT22;37886;53.174;6.368;2022-09-30T13:32:47;16.80;99.90
51839;DHT22;37886;53.174;6.368;2022-09-30T13:35:55;16.30;99.90
51839;DHT22;37886;53.174;6.368;2022-09-30T13:38:33;16.10;99.90
51839;DHT22;37886;53.174;6.368;2022-09-30T13:41:19;16.00;99.90
51839;DHT22;37886;53.174;6.368;2022-09-30T13:44:07;16.10;99.90
51839;DHT22;37886;53.174;6.368;2022-09-30T13:46:53;17.80;99.90
51839;DHT22;37886;53.174;6.368;2022-09-30T13:52:01;21.10;99.90
51839;DHT22;37886;53.174;6.368;2022-09-30T13:54:36;19.50;99.90
51839;DHT22;37886;53.174;6.368;2022-09-30T13:57:05;17.60;99.90
51839;DHT22;37886;53.174;6.368;2022-09-30T13:59:43;18.20;99.90
51839;DHT22;37886;53.174;6.368;2022-09-30T14:21:57;20.30;99.90
51839;DHT22;37886;53.174;6.368;2022-09-30T14:24:29;19.80;99.90
51839;DHT22;37886;53.174;6.368;2022-09-30T14:32:33;19.90;99.90
51839;DHT22;37886;53.174;6.368;2022-09-30T14:35:04;19.00;99.90
51839;DHT22;37886;53.174;6.368;2022-09-30T14:40:29;18.70;99.90
51839;DHT22;37886;53.174;6.368;2022-09-30T14:43:03;19.30;99.90
51839;DHT22;37886;53.174;6.368;2022-09-30T14:45:32;19.10;99.90
51839;DHT22;37886;53.174;6.368;2022-09-30T14:48:13;19.00;99.90
51839;DHT22;37886;53.174;6.368;2022-09-30T14:51:04;19.10;99.90
51839;DHT22;37886;53.174;6.368;2022-09-30T14:53:33;19.70;99.90
51839;DHT22;37886;53.174;6.368;2022-09-30T14:56:00;20.60;99.90
51839;DHT22;37886;53.174;6.368;2022-09-30T14:58:42;18.90;99.90
51839;DHT22;37886;53.174;6.368;2022-09-30T15:01:14;19.40;99.90
51839;DHT22;37886;53.174;6.368;2022-09-30T15:03:53;19.80;99.90
51839;DHT22;37886;53.174;6.368;2022-09-30T15:08:50;17.80;99.90
51839;DHT22;37886;53.174;6.368;2022-09-30T15:11:21;17.20;99.90
51839;DHT22;37886;53.174;6.368;2022-09-30T15:14:08;16.90;99.90
51839;DHT22;37886;53.174;6.368;2022-09-30T15:17:15;16.40;99.90
51839;DHT22;37886;53.174;6.368;2022-09-30T15:19:41;16.30;99.90
51839;DHT22;37886;53.174;6.368;2022-09-30T15:22:10;16.10;99.90
51839;DHT22;37886;53.174;6.368;2022-09-30T15:24:37;16.00;99.90
51839;DHT22;37886;53.174;6.368;2022-09-30T15:27:05;15.90;99.90
51839;DHT22;37886;53.174;6.368;2022-09-30T15:29:35;15.80;99.90
51839;DHT22;37886;53.174;6.368;2022-09-30T15:32:19;15.90;99.90
51839;DHT22;37886;53.174;6.368;2022-09-30T15:34:46;15.80;99.90
51839;DHT22;37886;53.174;6.368;2022-09-30T15:37:26;15.90;99.90
51839;DHT22;37886;53.174;6.368;2022-09-30T15:39:59;15.90;99.90
51839;DHT22;37886;53.174;6.368;2022-09-30T15:42:52;15.80;99.90
51839;DHT22;37886;53.174;6.368;2022-09-30T15:45:40;15.80;99.90
51839;DHT22;37886;53.174;6.368;2022-09-30T15:50:47;15.60;99.90
51839;DHT22;37886;53.174;6.368;2022-09-30T15:59:18;15.40;99.90
51839;DHT22;37886;53.174;6.368;2022-09-30T16:01:46;15.30;99.90
51839;DHT22;37886;53.174;6.368;2022-09-30T16:06:47;15.20;99.90
51839;DHT22;37886;53.174;6.368;2022-09-30T16:11:55;15.10;99.90
51839;DHT22;37886;53.174;6.368;2022-09-30T16:14:30;15.00;99.90
51839;DHT22;37886;53.174;6.368;2022-09-30T16:17:01;15.00;99.90
51839;DHT22;37886;53.174;6.368;2022-09-30T16:19:28;15.00;99.90
51839;DHT22;37886;53.174;6.368;2022-09-30T16:21:55;14.90;99.90
51839;DHT22;37886;53.174;6.368;2022-09-30T16:26:57;14.80;99.90
51839;DHT22;37886;53.174;6.368;2022-09-30T16:29:25;14.70;99.90
51839;DHT22;37886;53.174;6.368;2022-09-30T16:31:54;14.70;99.90
51839;DHT22;37886;53.174;6.368;2022-09-30T16:36:52;14.60;99.90
51839;DHT22;37886;53.174;6.368;2022-09-30T16:39:19;14.60;99.90
51839;DHT22;37886;53.174;6.368;2022-09-30T16:41:45;14.60;99.90
51839;DHT22;37886;53.174;6.368;2022-09-30T16:44:11;14.50;99.90
51839;DHT22;37886;53.174;6.368;2022-09-30T16:46:37;14.50;99.90
51839;DHT22;37886;53.174;6.368;2022-09-30T16:49:19;14.50;99.90
51839;DHT22;37886;53.174;6.368;2022-09-30T16:51:44;14.40;99.90
51839;DHT22;37886;53.174;6.368;2022-09-30T16:54:11;14.30;99.90
51839;DHT22;37886;53.174;6.368;2022-09-30T16:56:37;14.30;99.90
51839;DHT22;37886;53.174;6.368;2022-09-30T16:59:12;14.10;99.90
51839;DHT22;37886;53.174;6.368;2022-09-30T17:01:39;14.00;99.90
51839;DHT22;37886;53.174;6.368;2022-09-30T17:04:05;13.80;99.90
51839;DHT22;37886;53.174;6.368;2022-09-30T17:06:31;13.70;99.90
51839;DHT22;37886;53.174;6.368;2022-09-30T17:08:58;13.70;99.90
51839;DHT22;37886;53.174;6.368;2022-09-30T17:11:28;13.60;99.90
51839;DHT22;37886;53.174;6.368;2022-09-30T17:14:01;13.40;99.90
51839;DHT22;37886;53.174;6.368;2022-09-30T17:16:27;13.30;99.90
51839;DHT22;37886;53.174;6.368;2022-09-30T17:18:53;13.30;99.90
51839;DHT22;37886;53.174;6.368;2022-09-30T17:21:20;13.20;99.90
51839;DHT22;37886;53.174;6.368;2022-09-30T17:23:46;13.00;99.90
51839;DHT22;37886;53.174;6.368;2022-09-30T17:26:12;12.90;99.90
51839;DHT22;37886;53.174;6.368;2022-09-30T17:28:38;12.90;99.90
51839;DHT22;37886;53.174;6.368;2022-09-30T17:31:04;12.90;99.90
51839;DHT22;37886;53.174;6.368;2022-09-30T17:33:32;12.80;99.90
51839;DHT22;37886;53.174;6.368;2022-09-30T17:36:00;12.70;99.90
51839;DHT22;37886;53.174;6.368;2022-09-30T17:38:27;12.70;99.90
51839;DHT22;37886;53.174;6.368;2022-09-30T17:40:53;12.60;99.90
51839;DHT22;37886;53.174;6.368;2022-09-30T17:43:38;12.50;99.90
51839;DHT22;37886;53.174;6.368;2022-09-30T17:46:04;12.50;99.90
51839;DHT22;37886;53.174;6.368;2022-09-30T17:48:30;12.50;99.90
51839;DHT22;37886;53.174;6.368;2022-09-30T17:50:56;12.60;99.90
51839;DHT22;37886;53.174;6.368;2022-09-30T17:53:22;12.50;99.90
51839;DHT22;37886;53.174;6.368;2022-09-30T17:56:21;12.40;99.90
51839;DHT22;37886;53.174;6.368;2022-09-30T17:58:47;12.30;99.90
51839;DHT22;37886;53.174;6.368;2022-09-30T18:01:16;12.30;99.90
51839;DHT22;37886;53.174;6.368;2022-09-30T18:03:42;12.10;99.90
51839;DHT22;37886;53.174;6.368;2022-09-30T18:06:09;12.10;99.90
51839;DHT22;37886;53.174;6.368;2022-09-30T18:08:35;12.10;99.90
51839;DHT22;37886;53.174;6.368;2022-09-30T18:11:01;12.10;99.90
51839;DHT22;37886;53.174;6.368;2022-09-30T18:13:27;12.10;99.90
51839;DHT22;37886;53.174;6.368;2022-09-30T18:15:53;12.10;99.90
51839;DHT22;37886;53.174;6.368;2022-09-30T18:18:19;12.10;99.90
51839;DHT22;37886;53.174;6.368;2022-09-30T18:20:46;12.00;99.90
51839;DHT22;37886;53.174;6.368;2022-09-30T18:23:14;12.00;99.90
51839;DHT22;37886;53.174;6.368;2022-09-30T18:25:41;12.00;99.90
51839;DHT22;37886;53.174;6.368;2022-09-30T18:28:09;12.00;99.90
51839;DHT22;37886;53.174;6.368;2022-09-30T18:30:36;12.10;99.90
51839;DHT22;37886;53.174;6.368;2022-09-30T18:33:02;12.10;99.90
51839;DHT22;37886;53.174;6.368;2022-09-30T18:35:34;12.00;99.90
51839;DHT22;37886;53.174;6.368;2022-09-30T18:38:00;11.90;99.90
51839;DHT22;37886;53.174;6.368;2022-09-30T18:40:27;11.80;99.90
51839;DHT22;37886;53.174;6.368;2022-09-30T18:42:55;12.00;99.90
51839;DHT22;37886;53.174;6.368;2022-09-30T18:45:23;12.00;99.90
51839;DHT22;37886;53.174;6.368;2022-09-30T18:47:53;12.00;99.90
51839;DHT22;37886;53.174;6.368;2022-09-30T18:50:20;11.90;99.90
51839;DHT22;37886;53.174;6.368;2022-09-30T18:52:47;11.90;99.90
51839;DHT22;37886;53.174;6.368;2022-09-30T18:55:14;12.10;99.90
51839;DHT22;37886;53.174;6.368;2022-09-30T18:57:39;12.10;99.90
51839;DHT22;37886;53.174;6.368;2022-09-30T19:00:06;12.10;99.90
51839;DHT22;37886;53.174;6.368;2022-09-30T19:02:36;12.00;99.90
51839;DHT22;37886;53.174;6.368;2022-09-30T19:05:07;12.00;99.90
51839;DHT22;37886;53.174;6.368;2022-09-30T19:07:33;12.00;99.90
51839;DHT22;37886;53.174;6.368;2022-09-30T19:10:05;12.00;99.90
51839;DHT22;37886;53.174;6.368;2022-09-30T19:12:32;12.00;99.90
51839;DHT22;37886;53.174;6.368;2022-09-30T19:15:01;12.00;99.90
51839;DHT22;37886;53.174;6.368;2022-09-30T19:17:27;12.00;99.90
51839;DHT22;37886;53.174;6.368;2022-09-30T19:19:56;12.00;99.90
51839;DHT22;37886;53.174;6.368;2022-09-30T19:22:23;12.10;99.90
51839;DHT22;37886;53.174;6.368;2022-09-30T19:24:49;12.10;99.90
51839;DHT22;37886;53.174;6.368;2022-09-30T19:27:15;12.20;99.90
51839;DHT22;37886;53.174;6.368;2022-09-30T19:29:40;12.30;99.90
51839;DHT22;37886;53.174;6.368;2022-09-30T19:32:06;12.30;99.90
51839;DHT22;37886;53.174;6.368;2022-09-30T19:34:35;12.30;99.90
51839;DHT22;37886;53.174;6.368;2022-09-30T19:37:01;12.30;99.90